sensor_id;sensor_type;location;lat;lon;timestamp;pressure;altitude;pressure_sealevel;temperature;humidity
81155;BME280;70631;50.436;7.826;2023-09-30T00:00:57;100001.06;;;15.58;76.81
81155;BME280;70631;50.436;7.826;2023-09-30T00:03:23;100003.06;;;15.56;77.13
81155;BME280;70631;50.436;7.826;2023-09-30T00:05:48;100003.56;;;15.51;76.71
81155;BME280;70631;50.436;7.826;2023-09-30T00:08:13;100005.72;;;15.48;76.92
81155;BME280;70631;50.436;7.826;2023-09-30T00:10:39;100001.66;;;15.44;76.81
81155;BME280;70631;50.436;7.826;2023-09-30T00:13:04;100010.47;;;15.36;76.98
81155;BME280;70631;50.436;7.826;2023-09-30T00:15:32;100005.56;;;15.32;77.09
81155;BME280;70631;50.436;7.826;2023-09-30T00:17:57;100015.06;;;15.26;77.25
81155;BME280;70631;50.436;7.826;2023-09-30T00:20:22;100017.38;;;15.21;77.52
81155;BME280;70631;50.436;7.826;2023-09-30T00:22:47;100011.59;;;15.16;77.46
81155;BME280;70631;50.436;7.826;2023-09-30T00:25:13;100004.84;;;15.12;77.42
81155;BME280;70631;50.436;7.826;2023-09-30T00:27:38;100009.00;;;15.06;77.51
81155;BME280;70631;50.436;7.826;2023-09-30T00:30:04;100001.25;;;15.03;77.50
81155;BME280;70631;50.436;7.826;2023-09-30T00:32:31;100012.31;;;15.00;77.59
81155;BME280;70631;50.436;7.826;2023-09-30T00:34:56;100015.41;;;14.95;77.61
81155;BME280;70631;50.436;7.826;2023-09-30T00:37:22;100014.88;;;14.92;77.62
81155;BME280;70631;50.436;7.826;2023-09-30T00:39:47;100019.72;;;14.88;77.65
81155;BME280;70631;50.436;7.826;2023-09-30T00:42:12;100015.66;;;14.84;77.58
81155;BME280;70631;50.436;7.826;2023-09-30T00:44:38;100018.63;;;14.81;77.83
81155;BME280;70631;50.436;7.826;2023-09-30T00:47:04;100020.78;;;14.78;77.76
81155;BME280;70631;50.436;7.826;2023-09-30T00:49:30;100035.34;;;14.75;77.67
81155;BME280;70631;50.436;7.826;2023-09-30T00:51:56;100032.22;;;14.70;77.51
81155;BME280;70631;50.436;7.826;2023-09-30T00:54:23;100029.84;;;14.67;77.40
81155;BME280;70631;50.436;7.826;2023-09-30T00:56:50;100036.66;;;14.61;78.04
81155;BME280;70631;50.436;7.826;2023-09-30T00:59:17;100035.28;;;14.57;77.93
81155;BME280;70631;50.436;7.826;2023-09-30T01:01:44;100043.63;;;14.54;78.27
81155;BME280;70631;50.436;7.826;2023-09-30T01:04:14;100041.50;;;14.48;77.78
81155;BME280;70631;50.436;7.826;2023-09-30T01:06:40;100044.03;;;14.50;77.93
81155;BME280;70631;50.436;7.826;2023-09-30T01:09:06;100032.94;;;14.45;77.89
81155;BME280;70631;50.436;7.826;2023-09-30T01:11:32;100031.34;;;14.42;77.83
81155;BME280;70631;50.436;7.826;2023-09-30T01:13:57;100038.00;;;14.38;78.17
81155;BME280;70631;50.436;7.826;2023-09-30T01:16:22;100034.63;;;14.36;78.15
81155;BME280;70631;50.436;7.826;2023-09-30T01:18:48;100034.94;;;14.33;77.68
81155;BME280;70631;50.436;7.826;2023-09-30T01:21:14;100036.88;;;14.31;78.03
81155;BME280;70631;50.436;7.826;2023-09-30T01:23:39;100032.66;;;14.28;77.87
81155;BME280;70631;50.436;7.826;2023-09-30T01:26:09;100027.75;;;14.24;77.67
81155;BME280;70631;50.436;7.826;2023-09-30T01:28:35;100030.72;;;14.21;77.96
81155;BME280;70631;50.436;7.826;2023-09-30T01:31:01;100034.28;;;14.12;78.50
81155;BME280;70631;50.436;7.826;2023-09-30T01:33:26;100046.13;;;14.09;78.35
81155;BME280;70631;50.436;7.826;2023-09-30T01:35:52;100038.53;;;14.04;78.35
81155;BME280;70631;50.436;7.826;2023-09-30T01:38:18;100033.47;;;14.01;78.13
81155;BME280;70631;50.436;7.826;2023-09-30T01:40:43;100042.63;;;13.99;78.02
81155;BME280;70631;50.436;7.826;2023-09-30T01:43:10;100056.47;;;13.94;78.13
81155;BME280;70631;50.436;7.826;2023-09-30T01:45:38;100057.06;;;13.88;78.15
81155;BME280;70631;50.436;7.826;2023-09-30T01:48:04;100051.94;;;13.85;77.98
81155;BME280;70631;50.436;7.826;2023-09-30T01:50:29;100057.59;;;13.82;78.37
81155;BME280;70631;50.436;7.826;2023-09-30T01:52:55;100062.25;;;13.80;78.30
81155;BME280;70631;50.436;7.826;2023-09-30T01:55:20;100065.38;;;13.75;78.26
81155;BME280;70631;50.436;7.826;2023-09-30T01:57:45;100076.09;;;13.75;78.02
81155;BME280;70631;50.436;7.826;2023-09-30T02:00:11;100078.63;;;13.77;78.33
81155;BME280;70631;50.436;7.826;2023-09-30T02:02:37;100075.94;;;13.77;78.51
81155;BME280;70631;50.436;7.826;2023-09-30T02:05:03;100076.78;;;13.77;77.99
81155;BME280;70631;50.436;7.826;2023-09-30T02:07:29;100067.91;;;13.77;78.75
81155;BME280;70631;50.436;7.826;2023-09-30T02:09:54;100067.91;;;13.77;78.22
81155;BME280;70631;50.436;7.826;2023-09-30T02:12:20;100072.28;;;13.78;78.36
81155;BME280;70631;50.436;7.826;2023-09-30T02:14:45;100085.66;;;13.78;78.42
81155;BME280;70631;50.436;7.826;2023-09-30T02:17:11;100074.94;;;13.78;78.36
81155;BME280;70631;50.436;7.826;2023-09-30T02:19:36;100073.13;;;13.79;78.32
81155;BME280;70631;50.436;7.826;2023-09-30T02:22:02;100073.25;;;13.77;78.44
81155;BME280;70631;50.436;7.826;2023-09-30T02:24:27;100072.56;;;13.75;78.76
81155;BME280;70631;50.436;7.826;2023-09-30T02:26:52;100079.91;;;13.73;78.47
81155;BME280;70631;50.436;7.826;2023-09-30T02:29:17;100083.84;;;13.69;78.54
81155;BME280;70631;50.436;7.826;2023-09-30T02:31:43;100093.97;;;13.65;78.59
81155;BME280;70631;50.436;7.826;2023-09-30T02:34:08;100086.38;;;13.61;78.46
81155;BME280;70631;50.436;7.826;2023-09-30T02:36:33;100082.16;;;13.58;78.79
81155;BME280;70631;50.436;7.826;2023-09-30T02:39:01;100079.06;;;13.53;78.77
81155;BME280;70631;50.436;7.826;2023-09-30T02:41:26;100071.44;;;13.49;78.60
81155;BME280;70631;50.436;7.826;2023-09-30T02:43:51;100065.38;;;13.37;79.38
81155;BME280;70631;50.436;7.826;2023-09-30T02:46:17;100079.19;;;13.32;79.76
81155;BME280;70631;50.436;7.826;2023-09-30T02:48:42;100071.56;;;13.28;79.02
81155;BME280;70631;50.436;7.826;2023-09-30T02:51:11;100073.41;;;13.27;79.30
81155;BME280;70631;50.436;7.826;2023-09-30T02:53:36;100075.09;;;13.28;78.91
81155;BME280;70631;50.436;7.826;2023-09-30T02:56:02;100055.94;;;13.23;79.01
81155;BME280;70631;50.436;7.826;2023-09-30T02:58:29;100070.16;;;13.24;79.34
81155;BME280;70631;50.436;7.826;2023-09-30T03:00:54;100061.94;;;13.15;79.26
81155;BME280;70631;50.436;7.826;2023-09-30T03:03:20;100067.41;;;13.14;79.05
81155;BME280;70631;50.436;7.826;2023-09-30T03:05:45;100071.94;;;13.13;79.14
81155;BME280;70631;50.436;7.826;2023-09-30T03:08:10;100074.59;;;13.13;79.53
81155;BME280;70631;50.436;7.826;2023-09-30T03:10:36;100081.09;;;13.11;79.23
81155;BME280;70631;50.436;7.826;2023-09-30T03:13:06;100078.53;;;13.09;78.97
81155;BME280;70631;50.436;7.826;2023-09-30T03:15:31;100083.19;;;13.07;78.80
81155;BME280;70631;50.436;7.826;2023-09-30T03:17:57;100078.25;;;13.03;79.24
81155;BME280;70631;50.436;7.826;2023-09-30T03:20:25;100085.81;;;12.98;78.89
81155;BME280;70631;50.436;7.826;2023-09-30T03:22:51;100096.81;;;12.95;79.24
81155;BME280;70631;50.436;7.826;2023-09-30T03:25:18;100098.19;;;12.89;78.99
81155;BME280;70631;50.436;7.826;2023-09-30T03:27:44;100102.97;;;12.85;79.04
81155;BME280;70631;50.436;7.826;2023-09-30T03:30:12;100107.63;;;12.83;78.88
81155;BME280;70631;50.436;7.826;2023-09-30T03:32:37;100105.31;;;12.79;79.09
81155;BME280;70631;50.436;7.826;2023-09-30T03:35:07;100109.25;;;12.75;79.07
81155;BME280;70631;50.436;7.826;2023-09-30T03:37:36;100101.66;;;12.70;79.30
81155;BME280;70631;50.436;7.826;2023-09-30T03:40:02;100102.91;;;12.66;79.57
81155;BME280;70631;50.436;7.826;2023-09-30T03:42:37;100096.28;;;12.61;79.16
81155;BME280;70631;50.436;7.826;2023-09-30T03:45:03;100102.75;;;12.58;79.51
81155;BME280;70631;50.436;7.826;2023-09-30T03:47:31;100099.47;;;12.54;79.40
81155;BME280;70631;50.436;7.826;2023-09-30T03:49:56;100087.22;;;12.52;79.43
81155;BME280;70631;50.436;7.826;2023-09-30T03:52:24;100088.59;;;12.46;79.97
81155;BME280;70631;50.436;7.826;2023-09-30T03:54:50;100098.72;;;12.43;80.03
81155;BME280;70631;50.436;7.826;2023-09-30T03:57:16;100098.72;;;12.43;79.94
81155;BME280;70631;50.436;7.826;2023-09-30T03:59:41;100101.41;;;12.43;79.67
81155;BME280;70631;50.436;7.826;2023-09-30T04:02:06;100111.38;;;12.41;79.76
81155;BME280;70631;50.436;7.826;2023-09-30T04:04:33;100108.56;;;12.42;79.46
81155;BME280;70631;50.436;7.826;2023-09-30T04:06:59;100110.78;;;12.37;79.27
81155;BME280;70631;50.436;7.826;2023-09-30T04:09:24;100102.16;;;12.34;79.42
81155;BME280;70631;50.436;7.826;2023-09-30T04:11:50;100105.97;;;12.31;79.66
81155;BME280;70631;50.436;7.826;2023-09-30T04:14:16;100109.75;;;12.29;79.88
81155;BME280;70631;50.436;7.826;2023-09-30T04:16:42;100111.69;;;12.27;79.51
81155;BME280;70631;50.436;7.826;2023-09-30T04:19:08;100115.50;;;12.24;79.71
81155;BME280;70631;50.436;7.826;2023-09-30T04:21:35;100121.94;;;12.21;79.82
81155;BME280;70631;50.436;7.826;2023-09-30T04:24:00;100113.47;;;12.16;79.67
81155;BME280;70631;50.436;7.826;2023-09-30T04:26:25;100108.38;;;12.13;79.34
81155;BME280;70631;50.436;7.826;2023-09-30T04:28:51;100102.59;;;12.08;79.50
81155;BME280;70631;50.436;7.826;2023-09-30T04:31:16;100125.84;;;11.97;79.79
81155;BME280;70631;50.436;7.826;2023-09-30T04:33:43;100124.28;;;11.94;80.31
81155;BME280;70631;50.436;7.826;2023-09-30T04:36:08;100115.53;;;11.92;80.28
81155;BME280;70631;50.436;7.826;2023-09-30T04:38:34;100108.97;;;11.96;80.10
81155;BME280;70631;50.436;7.826;2023-09-30T04:41:02;100116.47;;;12.02;80.00
81155;BME280;70631;50.436;7.826;2023-09-30T04:43:27;100124.66;;;12.10;80.33
81155;BME280;70631;50.436;7.826;2023-09-30T04:45:54;100126.72;;;12.18;79.80
81155;BME280;70631;50.436;7.826;2023-09-30T04:48:21;100131.38;;;12.26;79.54
81155;BME280;70631;50.436;7.826;2023-09-30T04:50:47;100125.50;;;12.32;79.48
81155;BME280;70631;50.436;7.826;2023-09-30T04:53:12;100121.59;;;12.36;79.70
81155;BME280;70631;50.436;7.826;2023-09-30T04:55:38;100123.19;;;12.38;79.94
81155;BME280;70631;50.436;7.826;2023-09-30T04:58:03;100127.13;;;12.44;79.85
81155;BME280;70631;50.436;7.826;2023-09-30T05:00:30;100119.56;;;12.49;79.84
81155;BME280;70631;50.436;7.826;2023-09-30T05:02:55;100117.31;;;12.54;79.69
81155;BME280;70631;50.436;7.826;2023-09-30T05:05:21;100110.03;;;12.56;79.56
81155;BME280;70631;50.436;7.826;2023-09-30T05:07:46;100111.47;;;12.60;79.48
81155;BME280;70631;50.436;7.826;2023-09-30T05:10:13;100116.41;;;12.65;79.49
81155;BME280;70631;50.436;7.826;2023-09-30T05:12:45;100117.97;;;12.67;79.58
81155;BME280;70631;50.436;7.826;2023-09-30T05:15:12;100116.72;;;12.71;79.38
81155;BME280;70631;50.436;7.826;2023-09-30T05:17:38;100110.09;;;12.75;79.32
81155;BME280;70631;50.436;7.826;2023-09-30T05:20:04;100117.16;;;12.76;79.63
81155;BME280;70631;50.436;7.826;2023-09-30T05:22:33;100133.06;;;12.78;79.27
81155;BME280;70631;50.436;7.826;2023-09-30T05:24:58;100138.25;;;12.79;79.54
81155;BME280;70631;50.436;7.826;2023-09-30T05:27:23;100131.22;;;12.78;79.76
81155;BME280;70631;50.436;7.826;2023-09-30T05:29:49;100139.72;;;12.83;79.90
81155;BME280;70631;50.436;7.826;2023-09-30T05:32:14;100144.78;;;12.87;79.76
81155;BME280;70631;50.436;7.826;2023-09-30T05:34:39;100143.53;;;12.91;80.07
81155;BME280;70631;50.436;7.826;2023-09-30T05:37:05;100142.56;;;12.92;79.86
81155;BME280;70631;50.436;7.826;2023-09-30T05:39:30;100151.16;;;12.95;80.02
81155;BME280;70631;50.436;7.826;2023-09-30T05:41:57;100151.28;;;12.94;79.82
81155;BME280;70631;50.436;7.826;2023-09-30T05:44:22;100150.56;;;12.92;80.17
81155;BME280;70631;50.436;7.826;2023-09-30T05:46:47;100156.91;;;12.91;80.52
81155;BME280;70631;50.436;7.826;2023-09-30T05:49:12;100158.88;;;12.89;80.51
81155;BME280;70631;50.436;7.826;2023-09-30T05:51:40;100157.75;;;12.91;80.91
81155;BME280;70631;50.436;7.826;2023-09-30T05:54:06;100162.69;;;12.96;80.29
81155;BME280;70631;50.436;7.826;2023-09-30T05:56:32;100147.94;;;13.01;80.21
81155;BME280;70631;50.436;7.826;2023-09-30T05:58:58;100142.31;;;13.04;80.10
81155;BME280;70631;50.436;7.826;2023-09-30T06:01:23;100149.50;;;13.04;80.32
81155;BME280;70631;50.436;7.826;2023-09-30T06:03:48;100152.19;;;13.04;80.25
81155;BME280;70631;50.436;7.826;2023-09-30T06:06:14;100153.03;;;13.04;80.62
81155;BME280;70631;50.436;7.826;2023-09-30T06:08:42;100160.63;;;13.09;80.59
81155;BME280;70631;50.436;7.826;2023-09-30T06:11:16;100164.31;;;13.08;80.49
81155;BME280;70631;50.436;7.826;2023-09-30T06:13:41;100176.84;;;13.17;80.50
81155;BME280;70631;50.436;7.826;2023-09-30T06:16:06;100181.13;;;13.20;80.33
81155;BME280;70631;50.436;7.826;2023-09-30T06:18:32;100175.91;;;13.18;80.25
81155;BME280;70631;50.436;7.826;2023-09-30T06:20:57;100172.47;;;13.16;80.49
81155;BME280;70631;50.436;7.826;2023-09-30T06:23:22;100168.81;;;13.17;80.54
81155;BME280;70631;50.436;7.826;2023-09-30T06:25:48;100164.47;;;13.16;80.75
81155;BME280;70631;50.436;7.826;2023-09-30T06:28:13;100172.47;;;13.16;80.67
81155;BME280;70631;50.436;7.826;2023-09-30T06:30:39;100166.69;;;13.11;80.92
81155;BME280;70631;50.436;7.826;2023-09-30T06:33:06;100165.28;;;13.07;80.50
81155;BME280;70631;50.436;7.826;2023-09-30T06:35:32;100164.00;;;13.01;80.58
81155;BME280;70631;50.436;7.826;2023-09-30T06:38:03;100168.38;;;13.02;80.52
81155;BME280;70631;50.436;7.826;2023-09-30T06:40:31;100177.09;;;13.04;80.87
81155;BME280;70631;50.436;7.826;2023-09-30T06:42:56;100182.03;;;13.09;81.01
81155;BME280;70631;50.436;7.826;2023-09-30T06:45:22;100173.47;;;13.15;80.74
81155;BME280;70631;50.436;7.826;2023-09-30T06:47:48;100179.41;;;13.19;80.95
81155;BME280;70631;50.436;7.826;2023-09-30T06:50:14;100189.00;;;13.21;80.65
81155;BME280;70631;50.436;7.826;2023-09-30T06:52:43;100177.31;;;13.22;80.49
81155;BME280;70631;50.436;7.826;2023-09-30T06:55:11;100176.84;;;13.17;80.29
81155;BME280;70631;50.436;7.826;2023-09-30T06:57:39;100173.34;;;13.16;80.91
81155;BME280;70631;50.436;7.826;2023-09-30T07:00:10;100179.53;;;13.17;80.61
81155;BME280;70631;50.436;7.826;2023-09-30T07:02:37;100183.41;;;13.24;80.51
81155;BME280;70631;50.436;7.826;2023-09-30T07:05:10;100192.00;;;13.28;80.24
81155;BME280;70631;50.436;7.826;2023-09-30T07:07:36;100197.22;;;13.39;80.47
81155;BME280;70631;50.436;7.826;2023-09-30T07:10:02;100198.97;;;13.50;80.12
81155;BME280;70631;50.436;7.826;2023-09-30T07:12:29;100194.31;;;13.61;79.96
81155;BME280;70631;50.436;7.826;2023-09-30T07:14:55;100196.06;;;13.72;79.60
81155;BME280;70631;50.436;7.826;2023-09-30T07:17:20;100198.16;;;13.78;79.66
81155;BME280;70631;50.436;7.826;2023-09-30T07:19:46;100195.38;;;13.89;79.35
81155;BME280;70631;50.436;7.826;2023-09-30T07:22:11;100182.94;;;13.98;78.85
81155;BME280;70631;50.436;7.826;2023-09-30T07:24:38;100189.88;;;14.10;78.83
81155;BME280;70631;50.436;7.826;2023-09-30T07:27:04;100182.09;;;14.17;78.39
81155;BME280;70631;50.436;7.826;2023-09-30T07:29:29;100191.69;;;14.19;78.02
81155;BME280;70631;50.436;7.826;2023-09-30T07:31:55;100209.88;;;14.25;78.04
81155;BME280;70631;50.436;7.826;2023-09-30T07:34:20;100202.25;;;14.40;77.43
81155;BME280;70631;50.436;7.826;2023-09-30T07:36:46;100191.81;;;14.56;76.98
81155;BME280;70631;50.436;7.826;2023-09-30T07:39:11;100201.09;;;14.72;76.47
81155;BME280;70631;50.436;7.826;2023-09-30T07:41:37;100212.09;;;14.78;75.74
81155;BME280;70631;50.436;7.826;2023-09-30T07:44:02;100208.56;;;14.78;75.96
81155;BME280;70631;50.436;7.826;2023-09-30T07:46:28;100208.69;;;14.86;75.75
81155;BME280;70631;50.436;7.826;2023-09-30T07:48:53;100200.72;;;15.04;74.39
81155;BME280;70631;50.436;7.826;2023-09-30T07:51:20;100208.00;;;15.21;74.12
81155;BME280;70631;50.436;7.826;2023-09-30T07:53:45;100216.81;;;15.41;73.99
81155;BME280;70631;50.436;7.826;2023-09-30T07:56:11;100216.28;;;15.65;73.58
81155;BME280;70631;50.436;7.826;2023-09-30T07:58:36;100217.22;;;15.91;72.68
81155;BME280;70631;50.436;7.826;2023-09-30T08:01:01;100220.50;;;16.20;72.11
81155;BME280;70631;50.436;7.826;2023-09-30T08:03:29;100218.59;;;16.48;71.25
81155;BME280;70631;50.436;7.826;2023-09-30T08:05:54;100216.78;;;16.75;70.94
81155;BME280;70631;50.436;7.826;2023-09-30T08:08:19;100220.28;;;16.93;70.67
81155;BME280;70631;50.436;7.826;2023-09-30T08:10:45;100229.91;;;17.04;69.73
81155;BME280;70631;50.436;7.826;2023-09-30T08:13:10;100233.50;;;17.13;68.75
81155;BME280;70631;50.436;7.826;2023-09-30T08:15:35;100241.63;;;17.21;69.15
81155;BME280;70631;50.436;7.826;2023-09-30T08:18:02;100248.72;;;17.22;69.44
81155;BME280;70631;50.436;7.826;2023-09-30T08:20:29;100247.03;;;17.29;69.28
81155;BME280;70631;50.436;7.826;2023-09-30T08:22:54;100241.94;;;17.52;68.68
81155;BME280;70631;50.436;7.826;2023-09-30T08:25:19;100245.84;;;17.57;68.53
81155;BME280;70631;50.436;7.826;2023-09-30T08:27:45;100241.47;;;17.64;68.44
81155;BME280;70631;50.436;7.826;2023-09-30T08:30:15;100238.19;;;17.79;68.37
81155;BME280;70631;50.436;7.826;2023-09-30T08:32:40;100236.38;;;17.95;67.74
81155;BME280;70631;50.436;7.826;2023-09-30T08:35:06;100231.81;;;17.88;67.33
81155;BME280;70631;50.436;7.826;2023-09-30T08:37:32;100226.59;;;17.86;67.09
81155;BME280;70631;50.436;7.826;2023-09-30T08:39:58;100239.34;;;17.76;67.71
81155;BME280;70631;50.436;7.826;2023-09-30T08:42:23;100242.53;;;17.71;68.36
81155;BME280;70631;50.436;7.826;2023-09-30T08:44:53;100251.13;;;17.75;67.94
81155;BME280;70631;50.436;7.826;2023-09-30T08:47:21;100265.50;;;17.84;67.88
81155;BME280;70631;50.436;7.826;2023-09-30T08:49:48;100267.03;;;17.94;68.02
81155;BME280;70631;50.436;7.826;2023-09-30T08:52:15;100267.75;;;18.05;67.36
81155;BME280;70631;50.436;7.826;2023-09-30T08:54:40;100270.31;;;18.22;66.89
81155;BME280;70631;50.436;7.826;2023-09-30T08:57:07;100274.22;;;18.44;66.61
81155;BME280;70631;50.436;7.826;2023-09-30T08:59:34;100282.16;;;19.03;65.59
81155;BME280;70631;50.436;7.826;2023-09-30T09:02:00;100286.19;;;19.15;64.64
81155;BME280;70631;50.436;7.826;2023-09-30T09:04:26;100281.38;;;19.58;63.18
81155;BME280;70631;50.436;7.826;2023-09-30T09:06:53;100271.09;;;19.84;62.31
81155;BME280;70631;50.436;7.826;2023-09-30T09:09:20;100272.56;;;19.95;62.03
81155;BME280;70631;50.436;7.826;2023-09-30T09:11:47;100277.47;;;20.91;60.48
81155;BME280;70631;50.436;7.826;2023-09-30T09:14:13;100276.28;;;21.96;58.88
81155;BME280;70631;50.436;7.826;2023-09-30T09:16:51;100272.19;;;22.58;56.97
81155;BME280;70631;50.436;7.826;2023-09-30T09:19:18;100268.91;;;23.53;53.69
81155;BME280;70631;50.436;7.826;2023-09-30T09:21:53;100266.50;;;24.19;52.69
81155;BME280;70631;50.436;7.826;2023-09-30T09:24:50;100273.09;;;24.84;51.89
81155;BME280;70631;50.436;7.826;2023-09-30T09:27:16;100269.03;;;25.53;49.96
81155;BME280;70631;50.436;7.826;2023-09-30T09:29:42;100260.06;;;26.04;47.90
81155;BME280;70631;50.436;7.826;2023-09-30T09:32:11;100252.75;;;26.36;45.66
81155;BME280;70631;50.436;7.826;2023-09-30T09:34:42;100239.84;;;26.49;45.44
81155;BME280;70631;50.436;7.826;2023-09-30T09:37:17;100236.09;;;26.69;45.01
81155;BME280;70631;50.436;7.826;2023-09-30T09:39:56;100236.59;;;26.84;45.20
81155;BME280;70631;50.436;7.826;2023-09-30T09:42:28;100232.56;;;26.87;43.84
81155;BME280;70631;50.436;7.826;2023-09-30T09:44:56;100233.44;;;27.12;43.40
81155;BME280;70631;50.436;7.826;2023-09-30T09:47:22;100229.63;;;27.31;43.18
81155;BME280;70631;50.436;7.826;2023-09-30T09:49:49;100235.00;;;27.63;42.02
81155;BME280;70631;50.436;7.826;2023-09-30T09:52:16;100224.72;;;27.77;40.87
81155;BME280;70631;50.436;7.826;2023-09-30T09:54:43;100217.72;;;27.92;41.12
81155;BME280;70631;50.436;7.826;2023-09-30T09:57:10;100219.22;;;28.07;41.44
81155;BME280;70631;50.436;7.826;2023-09-30T09:59:36;100216.25;;;28.38;40.09
81155;BME280;70631;50.436;7.826;2023-09-30T10:02:09;100219.88;;;28.50;39.89
81155;BME280;70631;50.436;7.826;2023-09-30T10:04:36;100211.41;;;28.52;38.28
81155;BME280;70631;50.436;7.826;2023-09-30T10:07:02;100209.97;;;28.49;38.33
81155;BME280;70631;50.436;7.826;2023-09-30T10:09:30;100210.44;;;28.58;37.92
81155;BME280;70631;50.436;7.826;2023-09-30T10:11:58;100216.34;;;28.85;37.28
81155;BME280;70631;50.436;7.826;2023-09-30T10:14:33;100213.63;;;29.08;37.97
81155;BME280;70631;50.436;7.826;2023-09-30T10:16:59;100209.91;;;28.91;36.96
81155;BME280;70631;50.436;7.826;2023-09-30T10:19:24;100205.72;;;29.00;36.65
81155;BME280;70631;50.436;7.826;2023-09-30T10:22:20;100210.38;;;29.35;36.92
81155;BME280;70631;50.436;7.826;2023-09-30T10:24:50;100202.03;;;29.18;36.98
81155;BME280;70631;50.436;7.826;2023-09-30T10:29:47;100206.56;;;27.76;37.36
81155;BME280;70631;50.436;7.826;2023-09-30T10:32:12;100205.41;;;26.92;38.65
81155;BME280;70631;50.436;7.826;2023-09-30T10:34:39;100211.44;;;27.00;39.20
81155;BME280;70631;50.436;7.826;2023-09-30T10:37:23;100217.47;;;26.28;40.21
81155;BME280;70631;50.436;7.826;2023-09-30T10:39:57;100223.84;;;27.21;39.13
81155;BME280;70631;50.436;7.826;2023-09-30T10:42:48;100228.47;;;27.21;38.85
81155;BME280;70631;50.436;7.826;2023-09-30T10:45:52;100216.88;;;26.19;39.22
81155;BME280;70631;50.436;7.826;2023-09-30T10:51:01;100223.66;;;25.72;40.95
81155;BME280;70631;50.436;7.826;2023-09-30T10:53:41;100219.19;;;26.54;40.10
81155;BME280;70631;50.436;7.826;2023-09-30T10:56:06;100218.50;;;25.95;40.87
81155;BME280;70631;50.436;7.826;2023-09-30T10:58:57;100236.16;;;25.15;41.62
81155;BME280;70631;50.436;7.826;2023-09-30T11:01:24;100236.16;;;25.28;41.77
81155;BME280;70631;50.436;7.826;2023-09-30T11:03:55;100229.63;;;25.94;41.46
81155;BME280;70631;50.436;7.826;2023-09-30T11:06:23;100229.22;;;26.85;40.74
81155;BME280;70631;50.436;7.826;2023-09-30T11:08:54;100226.97;;;27.61;38.73
81155;BME280;70631;50.436;7.826;2023-09-30T11:14:03;100209.09;;;28.07;37.79
81155;BME280;70631;50.436;7.826;2023-09-30T11:16:40;100203.25;;;28.04;37.71
81155;BME280;70631;50.436;7.826;2023-09-30T11:19:06;100204.78;;;27.69;37.59
81155;BME280;70631;50.436;7.826;2023-09-30T11:21:33;100212.41;;;27.06;38.54
81155;BME280;70631;50.436;7.826;2023-09-30T11:24:00;100216.56;;;26.65;39.68
81155;BME280;70631;50.436;7.826;2023-09-30T11:26:30;100219.78;;;26.80;39.59
81155;BME280;70631;50.436;7.826;2023-09-30T11:29:10;100231.41;;;27.62;38.98
81155;BME280;70631;50.436;7.826;2023-09-30T11:31:43;100228.34;;;28.49;36.89
81155;BME280;70631;50.436;7.826;2023-09-30T11:34:09;100226.38;;;29.14;36.87
81155;BME280;70631;50.436;7.826;2023-09-30T11:36:36;100228.69;;;29.69;35.45
81155;BME280;70631;50.436;7.826;2023-09-30T11:39:02;100231.94;;;29.43;35.02
81155;BME280;70631;50.436;7.826;2023-09-30T11:41:36;100217.50;;;28.66;35.24
81155;BME280;70631;50.436;7.826;2023-09-30T11:44:06;100205.78;;;28.58;35.52
81155;BME280;70631;50.436;7.826;2023-09-30T11:49:36;100196.94;;;27.73;36.86
81155;BME280;70631;50.436;7.826;2023-09-30T11:52:10;100202.00;;;27.51;36.61
81155;BME280;70631;50.436;7.826;2023-09-30T11:54:38;100200.28;;;27.20;36.49
81155;BME280;70631;50.436;7.826;2023-09-30T11:57:06;100207.28;;;27.16;37.20
81155;BME280;70631;50.436;7.826;2023-09-30T11:59:35;100189.84;;;27.10;37.61
81155;BME280;70631;50.436;7.826;2023-09-30T12:02:08;100189.34;;;26.52;38.40
81155;BME280;70631;50.436;7.826;2023-09-30T12:04:34;100184.41;;;26.36;38.52
81155;BME280;70631;50.436;7.826;2023-09-30T12:07:00;100180.63;;;26.37;38.36
81155;BME280;70631;50.436;7.826;2023-09-30T12:09:25;100181.94;;;26.28;37.80
81155;BME280;70631;50.436;7.826;2023-09-30T12:11:52;100176.16;;;26.11;38.03
81155;BME280;70631;50.436;7.826;2023-09-30T12:14:18;100180.97;;;26.15;38.28
81155;BME280;70631;50.436;7.826;2023-09-30T12:16:44;100175.88;;;26.19;38.60
81155;BME280;70631;50.436;7.826;2023-09-30T12:19:11;100190.38;;;26.19;38.55
81155;BME280;70631;50.436;7.826;2023-09-30T12:21:36;100183.63;;;26.22;38.31
81155;BME280;70631;50.436;7.826;2023-09-30T12:24:02;100188.69;;;26.25;39.02
81155;BME280;70631;50.436;7.826;2023-09-30T12:26:29;100186.16;;;26.24;38.65
81155;BME280;70631;50.436;7.826;2023-09-30T12:28:55;100184.09;;;26.19;38.34
81155;BME280;70631;50.436;7.826;2023-09-30T12:31:22;100181.31;;;25.94;37.06
81155;BME280;70631;50.436;7.826;2023-09-30T12:33:48;100189.88;;;25.59;38.21
81155;BME280;70631;50.436;7.826;2023-09-30T12:36:16;100190.34;;;25.43;38.44
81155;BME280;70631;50.436;7.826;2023-09-30T12:38:41;100188.72;;;25.29;38.15
81155;BME280;70631;50.436;7.826;2023-09-30T12:41:07;100200.53;;;25.03;39.09
81155;BME280;70631;50.436;7.826;2023-09-30T12:43:33;100189.84;;;24.82;38.32
81155;BME280;70631;50.436;7.826;2023-09-30T12:45:58;100187.53;;;24.72;38.82
81155;BME280;70631;50.436;7.826;2023-09-30T12:48:24;100181.47;;;24.70;38.52
81155;BME280;70631;50.436;7.826;2023-09-30T12:50:49;100175.19;;;24.50;38.66
81155;BME280;70631;50.436;7.826;2023-09-30T12:53:15;100165.78;;;24.32;38.69
81155;BME280;70631;50.436;7.826;2023-09-30T12:55:41;100161.09;;;24.26;39.66
81155;BME280;70631;50.436;7.826;2023-09-30T12:58:06;100158.59;;;24.25;39.90
81155;BME280;70631;50.436;7.826;2023-09-30T13:00:32;100159.44;;;24.19;40.16